createdAt,value
2017-04-16T00:00:05.238Z,0
2017-04-16T00:01:13.324Z,0
2017-04-16T00:02:21.410Z,0
2017-04-16T00:03:29.500Z,0
2017-04-16T00:04:37.590Z,0
2017-04-16T00:05:45.685Z,0
2017-04-16T00:06:53.761Z,0
2017-04-16T00:08:01.859Z,0
2017-04-16T00:09:09.947Z,0
2017-04-16T00:10:18.030Z,0
2017-04-16T00:11:26.121Z,0
2017-04-16T00:12:34.208Z,0
2017-04-16T00:13:42.293Z,0
2017-04-16T00:14:50.380Z,0
2017-04-16T00:15:58.470Z,0
2017-04-16T00:17:06.559Z,0
2017-04-16T00:18:14.642Z,0
2017-04-16T00:19:22.733Z,0
2017-04-16T00:20:30.831Z,0
2017-04-16T00:21:38.922Z,0
2017-04-16T00:22:47.009Z,0
2017-04-16T00:23:55.097Z,0
2017-04-16T00:25:03.180Z,0
2017-04-16T00:26:11.266Z,0
2017-04-16T00:27:19.356Z,0
2017-04-16T00:28:27.444Z,0
2017-04-16T00:29:35.532Z,0
2017-04-16T00:30:43.619Z,0
2017-04-16T00:31:51.709Z,0
2017-04-16T00:32:59.804Z,0
2017-04-16T00:34:07.881Z,0
2017-04-16T00:35:15.970Z,0
2017-04-16T00:36:24.060Z,0
2017-04-16T00:37:32.220Z,0
2017-04-16T00:38:40.229Z,0
2017-04-16T00:39:48.321Z,0
2017-04-16T00:40:56.409Z,0
2017-04-16T00:42:04.493Z,0
2017-04-16T00:43:12.584Z,0
2017-04-16T00:44:20.671Z,0
2017-04-16T00:45:28.761Z,0
2017-04-16T00:46:36.855Z,0
2017-04-16T00:47:49.169Z,0
2017-04-16T00:48:53.029Z,0
2017-04-16T00:50:01.114Z,0
2017-04-16T00:51:09.201Z,0
2017-04-16T00:52:17.295Z,0
2017-04-16T00:53:25.375Z,0
2017-04-16T00:54:33.468Z,0
2017-04-16T00:55:41.557Z,0
2017-04-16T00:56:49.646Z,0
2017-04-16T00:57:57.733Z,0
2017-04-16T00:59:05.822Z,0
2017-04-16T01:00:13.909Z,0
2017-04-16T01:01:21.989Z,0
2017-04-16T01:02:30.084Z,0
2017-04-16T01:03:38.172Z,0
2017-04-16T01:04:46.259Z,0
2017-04-16T01:05:54.342Z,0
2017-04-16T01:07:02.435Z,0
2017-04-16T01:08:10.525Z,0
2017-04-16T01:09:18.609Z,0
2017-04-16T01:10:26.696Z,0
2017-04-16T01:11:34.779Z,0
2017-04-16T01:12:42.860Z,0
2017-04-16T01:13:50.950Z,0
2017-04-16T01:14:59.044Z,0
2017-04-16T01:16:07.138Z,0
2017-04-16T01:17:15.218Z,0
2017-04-16T01:18:23.311Z,0
2017-04-16T01:19:31.400Z,0
2017-04-16T01:20:39.485Z,0
2017-04-16T01:21:47.569Z,0
2017-04-16T01:22:55.662Z,0
2017-04-16T01:24:03.822Z,0
2017-04-16T01:25:11.832Z,0
2017-04-16T01:26:19.922Z,0
2017-04-16T01:27:28.013Z,0
2017-04-16T01:28:36.094Z,0
2017-04-16T01:29:44.182Z,0
2017-04-16T01:30:52.272Z,0
2017-04-16T01:32:00.357Z,0
2017-04-16T01:33:08.444Z,0
2017-04-16T01:34:16.528Z,0
2017-04-16T01:35:24.633Z,0
2017-04-16T01:36:32.700Z,0
2017-04-16T01:37:40.787Z,0
2017-04-16T01:38:48.877Z,0
2017-04-16T01:39:56.967Z,0
2017-04-16T01:41:05.089Z,0
2017-04-16T01:42:13.140Z,0
2017-04-16T01:43:21.228Z,0
2017-04-16T01:44:29.315Z,0
2017-04-16T01:45:37.398Z,0
2017-04-16T01:46:45.486Z,0
2017-04-16T01:47:53.572Z,0
2017-04-16T01:49:01.655Z,0
2017-04-16T01:50:09.745Z,0
2017-04-16T01:51:17.839Z,0
2017-04-16T01:52:25.927Z,0
2017-04-16T01:53:34.015Z,0
2017-04-16T01:54:42.104Z,0
2017-04-16T01:55:50.194Z,0
2017-04-16T01:56:58.276Z,0
2017-04-16T01:58:06.382Z,0
2017-04-16T01:59:14.455Z,0
2017-04-16T02:00:22.540Z,0
2017-04-16T02:01:30.629Z,0
2017-04-16T02:02:38.714Z,0
2017-04-16T02:03:46.800Z,0
2017-04-16T02:04:54.885Z,0
2017-04-16T02:06:02.976Z,0
2017-04-16T02:07:11.063Z,0
2017-04-16T02:08:19.153Z,0
2017-04-16T02:09:27.246Z,0
2017-04-16T02:10:35.336Z,0
2017-04-16T02:11:43.424Z,0
2017-04-16T02:12:51.507Z,0
2017-04-16T02:13:59.604Z,0
2017-04-16T02:15:07.690Z,0
2017-04-16T02:16:15.773Z,0
2017-04-16T02:17:23.867Z,0
2017-04-16T02:18:31.954Z,0
2017-04-16T02:19:40.041Z,0
2017-04-16T02:20:48.127Z,0
2017-04-16T02:21:56.220Z,0
2017-04-16T02:23:04.310Z,0
2017-04-16T02:24:12.393Z,0
2017-04-16T02:25:20.485Z,0
2017-04-16T02:26:28.573Z,0
2017-04-16T02:27:36.656Z,0
2017-04-16T02:28:44.746Z,0
2017-04-16T02:29:52.836Z,0
2017-04-16T02:31:00.919Z,0
2017-04-16T02:32:09.002Z,0
2017-04-16T02:33:17.089Z,0
2017-04-16T02:34:25.177Z,0
2017-04-16T02:35:33.263Z,0
2017-04-16T02:36:41.345Z,0
2017-04-16T02:37:49.434Z,0
2017-04-16T02:38:57.522Z,0
2017-04-16T02:40:05.605Z,0
2017-04-16T02:41:13.693Z,0
2017-04-16T02:42:21.783Z,0
2017-04-16T02:43:29.874Z,0
2017-04-16T02:44:37.954Z,0
2017-04-16T02:45:46.042Z,0
2017-04-16T02:46:54.131Z,0
2017-04-16T02:48:02.212Z,0
2017-04-16T02:49:10.303Z,0
2017-04-16T02:50:18.389Z,0
2017-04-16T02:51:26.471Z,0
2017-04-16T02:52:34.564Z,0
2017-04-16T02:53:42.653Z,0
2017-04-16T02:54:50.740Z,0
2017-04-16T02:55:58.822Z,0
2017-04-16T02:57:06.911Z,0
2017-04-16T02:58:14.999Z,0
2017-04-16T02:59:23.082Z,0
2017-04-16T03:00:31.212Z,0
2017-04-16T03:01:39.259Z,0
2017-04-16T03:02:47.342Z,0
2017-04-16T03:03:55.428Z,0
2017-04-16T03:05:03.516Z,0
2017-04-16T03:06:11.601Z,0
2017-04-16T03:07:19.686Z,0
2017-04-16T03:08:27.773Z,0
2017-04-16T03:09:35.859Z,0
2017-04-16T03:10:43.945Z,0
2017-04-16T03:11:52.030Z,0
2017-04-16T03:13:00.118Z,0
2017-04-16T03:14:08.203Z,0
2017-04-16T03:15:16.292Z,0
2017-04-16T03:16:24.384Z,0
2017-04-16T03:17:32.466Z,0
2017-04-16T03:18:40.551Z,0
2017-04-16T03:19:48.633Z,0
2017-04-16T03:20:56.722Z,0
2017-04-16T03:22:04.814Z,0
2017-04-16T03:23:12.893Z,0
2017-04-16T03:24:20.983Z,0
2017-04-16T03:25:29.071Z,0
2017-04-16T03:26:37.155Z,0
2017-04-16T03:27:45.242Z,0
2017-04-16T03:28:53.333Z,0
2017-04-16T03:30:01.417Z,0
2017-04-16T03:31:09.508Z,0
2017-04-16T03:32:17.594Z,0
2017-04-16T03:33:25.680Z,0
2017-04-16T03:34:33.767Z,0
2017-04-16T03:35:41.851Z,0
2017-04-16T03:36:49.940Z,0
2017-04-16T03:37:58.022Z,0
2017-04-16T03:39:06.112Z,0
2017-04-16T03:40:14.195Z,0
2017-04-16T03:41:22.279Z,0
2017-04-16T03:42:30.367Z,0
2017-04-16T03:43:38.450Z,0
2017-04-16T03:44:46.539Z,0
2017-04-16T03:45:54.629Z,0
2017-04-16T03:47:02.712Z,0
2017-04-16T03:48:10.803Z,0
2017-04-16T03:49:18.887Z,0
2017-04-16T03:50:26.973Z,0
2017-04-16T03:51:35.058Z,0
2017-04-16T03:52:43.149Z,0
2017-04-16T03:53:51.235Z,0
2017-04-16T03:54:59.317Z,0
2017-04-16T03:56:07.414Z,0
2017-04-16T03:57:15.492Z,0
2017-04-16T03:58:23.585Z,0
2017-04-16T03:59:31.661Z,0
2017-04-16T04:00:39.750Z,0
2017-04-16T04:01:47.830Z,0
2017-04-16T04:02:55.919Z,0
2017-04-16T04:04:04.010Z,0
2017-04-16T04:05:12.100Z,0
2017-04-16T04:06:20.184Z,0
2017-04-16T04:07:28.274Z,0
2017-04-16T04:08:36.366Z,0
2017-04-16T04:09:44.485Z,0
2017-04-16T04:10:52.538Z,0
2017-04-16T04:12:00.633Z,0
2017-04-16T04:13:08.721Z,0
2017-04-16T04:14:16.803Z,0
2017-04-16T04:15:24.895Z,0
2017-04-16T04:16:32.981Z,0
2017-04-16T04:17:41.067Z,0
2017-04-16T04:18:49.149Z,0
2017-04-16T04:19:57.242Z,0
2017-04-16T04:21:05.323Z,0
2017-04-16T04:22:13.415Z,0
2017-04-16T04:23:21.496Z,0
2017-04-16T04:24:29.581Z,0
2017-04-16T04:25:37.663Z,0
2017-04-16T04:26:45.820Z,0
2017-04-16T04:27:53.841Z,0
2017-04-16T04:29:01.927Z,0
2017-04-16T04:30:10.010Z,0
2017-04-16T04:31:18.100Z,0
2017-04-16T04:32:26.185Z,0
2017-04-16T04:33:34.277Z,0
2017-04-16T04:34:42.360Z,0
2017-04-16T04:35:50.441Z,0
2017-04-16T04:36:58.527Z,0
2017-04-16T04:38:06.610Z,0
2017-04-16T04:39:14.699Z,0
2017-04-16T04:40:22.792Z,0
2017-04-16T04:41:30.878Z,0
2017-04-16T04:42:38.969Z,0
2017-04-16T04:43:47.059Z,0
2017-04-16T04:44:55.144Z,0
2017-04-16T04:46:03.229Z,0
2017-04-16T04:47:11.313Z,0
2017-04-16T04:48:19.398Z,0
2017-04-16T04:49:27.480Z,0
2017-04-16T04:50:36.214Z,0
2017-04-16T04:51:43.654Z,0
2017-04-16T04:52:51.747Z,0
2017-04-16T04:53:59.823Z,0
2017-04-16T04:55:07.915Z,0
2017-04-16T04:56:16.000Z,0
2017-04-16T04:57:24.088Z,0
2017-04-16T04:58:32.169Z,0
2017-04-16T04:59:40.261Z,0
2017-04-16T05:00:48.347Z,0
2017-04-16T05:01:56.431Z,0
2017-04-16T05:03:04.518Z,0
2017-04-16T05:04:12.605Z,0
2017-04-16T05:05:20.693Z,0
2017-04-16T05:06:28.776Z,0
2017-04-16T05:07:36.870Z,0
2017-04-16T05:08:45.110Z,0
2017-04-16T05:09:53.040Z,0
2017-04-16T05:11:01.126Z,0
2017-04-16T05:12:09.217Z,0
2017-04-16T05:13:17.299Z,0
2017-04-16T05:14:25.389Z,0
2017-04-16T05:15:33.476Z,0
2017-04-16T05:16:41.563Z,0
2017-04-16T05:17:49.648Z,0
2017-04-16T05:18:57.735Z,0
2017-04-16T05:20:05.829Z,0
2017-04-16T05:21:13.911Z,0
2017-04-16T05:22:21.995Z,4
2017-04-16T05:23:30.083Z,4
2017-04-16T05:24:38.163Z,0
2017-04-16T05:25:46.247Z,0
2017-04-16T05:26:54.340Z,0
2017-04-16T05:28:02.422Z,0
2017-04-16T05:29:10.500Z,0
2017-04-16T05:30:18.592Z,4
2017-04-16T05:31:26.680Z,0
2017-04-16T05:32:34.765Z,0
2017-04-16T05:33:42.846Z,0
2017-04-16T05:34:50.941Z,4
2017-04-16T05:35:59.023Z,4
2017-04-16T05:37:07.105Z,4
2017-04-16T05:38:15.194Z,4
2017-04-16T05:39:23.281Z,4
2017-04-16T05:40:31.364Z,4
2017-04-16T05:41:39.447Z,0
2017-04-16T05:42:47.543Z,4
2017-04-16T05:43:55.631Z,4
2017-04-16T05:45:03.721Z,4
2017-04-16T05:46:11.799Z,0
2017-04-16T05:47:19.884Z,4
2017-04-16T05:48:27.972Z,4
2017-04-16T05:49:36.070Z,4
2017-04-16T05:50:44.150Z,0
2017-04-16T05:51:52.310Z,0
2017-04-16T05:53:00.323Z,4
2017-04-16T05:54:08.407Z,4
2017-04-16T05:55:16.494Z,4
2017-04-16T05:56:24.577Z,0
2017-04-16T05:57:32.655Z,4
2017-04-16T05:58:40.748Z,0
2017-04-16T05:59:48.831Z,4
2017-04-16T06:00:56.914Z,4
2017-04-16T06:02:05.003Z,4
2017-04-16T06:03:13.086Z,4
2017-04-16T06:04:21.171Z,4
2017-04-16T06:05:29.253Z,4
2017-04-16T06:06:37.343Z,4
2017-04-16T06:07:45.429Z,4
2017-04-16T06:08:53.512Z,4
2017-04-16T06:10:01.597Z,4
2017-04-16T06:11:09.683Z,0
2017-04-16T06:12:17.767Z,4
2017-04-16T06:13:25.854Z,0
2017-04-16T06:14:33.948Z,4
2017-04-16T06:15:42.022Z,4
2017-04-16T06:16:50.108Z,4
2017-04-16T06:17:58.201Z,4
2017-04-16T06:19:06.285Z,8
2017-04-16T06:20:14.370Z,8
2017-04-16T06:21:22.449Z,4
2017-04-16T06:22:30.539Z,4
2017-04-16T06:23:38.630Z,8
2017-04-16T06:24:46.712Z,4
2017-04-16T06:25:54.806Z,4
2017-04-16T06:27:02.894Z,8
2017-04-16T06:28:10.977Z,8
2017-04-16T06:29:19.073Z,8
2017-04-16T06:30:27.159Z,8
2017-04-16T06:31:35.247Z,8
2017-04-16T06:32:43.334Z,4
2017-04-16T06:33:51.422Z,8
2017-04-16T06:34:59.502Z,8
2017-04-16T06:36:07.585Z,8
2017-04-16T06:37:15.675Z,8
2017-04-16T06:38:23.826Z,8
2017-04-16T06:39:31.842Z,8
2017-04-16T06:40:39.928Z,8
2017-04-16T06:41:48.020Z,8
2017-04-16T06:42:56.103Z,8
2017-04-16T06:44:04.188Z,8
2017-04-16T06:45:12.275Z,8
2017-04-16T06:46:20.368Z,8
2017-04-16T06:47:28.453Z,8
2017-04-16T06:48:36.536Z,8
2017-04-16T06:49:44.628Z,8
2017-04-16T06:50:52.705Z,8
2017-04-16T06:52:00.788Z,8
2017-04-16T06:53:08.879Z,12
2017-04-16T06:54:16.964Z,12
2017-04-16T06:55:25.064Z,12
2017-04-16T06:56:33.135Z,12
2017-04-16T06:57:41.215Z,8
2017-04-16T06:58:49.302Z,8
2017-04-16T06:59:57.383Z,8
2017-04-16T07:01:05.470Z,8
2017-04-16T07:02:13.557Z,8
2017-04-16T07:03:21.641Z,8
2017-04-16T07:04:29.724Z,4
2017-04-16T07:05:37.809Z,4
2017-04-16T07:06:45.897Z,8
2017-04-16T07:07:53.977Z,8
2017-04-16T07:09:02.063Z,8
2017-04-16T07:10:10.148Z,12
2017-04-16T07:11:18.234Z,16
2017-04-16T07:12:26.314Z,16
2017-04-16T07:13:34.404Z,20
2017-04-16T07:14:42.484Z,20
2017-04-16T07:15:50.568Z,24
2017-04-16T07:16:58.666Z,20
2017-04-16T07:18:06.751Z,24
2017-04-16T07:19:14.843Z,24
2017-04-16T07:20:22.924Z,28
2017-04-16T07:21:31.092Z,24
2017-04-16T07:22:39.101Z,28
2017-04-16T07:23:47.180Z,24
2017-04-16T07:24:55.272Z,24
2017-04-16T07:26:03.354Z,20
2017-04-16T07:27:11.443Z,20
2017-04-16T07:28:19.529Z,20
2017-04-16T07:29:27.623Z,24
2017-04-16T07:30:35.708Z,24
2017-04-16T07:31:43.793Z,28
2017-04-16T07:32:51.896Z,28
2017-04-16T07:34:00.001Z,28
2017-04-16T07:35:08.055Z,28
2017-04-16T07:36:16.278Z,28
2017-04-16T07:37:24.233Z,28
2017-04-16T07:38:32.316Z,32
2017-04-16T07:39:40.401Z,28
2017-04-16T07:40:48.491Z,28
2017-04-16T07:41:56.677Z,28
2017-04-16T07:43:04.696Z,24
2017-04-16T07:44:12.750Z,24
2017-04-16T07:45:20.835Z,24
2017-04-16T07:46:28.925Z,24
2017-04-16T07:47:37.002Z,24
2017-04-16T07:48:45.094Z,28
2017-04-16T07:49:53.177Z,24
2017-04-16T07:51:01.261Z,24
2017-04-16T07:52:09.352Z,24
2017-04-16T07:53:17.438Z,24
2017-04-16T07:54:25.522Z,24
2017-04-16T07:55:33.605Z,24
2017-04-16T07:56:41.693Z,20
2017-04-16T07:57:49.778Z,20
2017-04-16T07:58:57.864Z,20
2017-04-16T08:00:05.948Z,28
2017-04-16T08:01:14.039Z,28
2017-04-16T08:02:22.233Z,28
2017-04-16T08:03:30.358Z,28
2017-04-16T08:04:38.465Z,28
2017-04-16T08:05:46.543Z,32
2017-04-16T08:06:54.621Z,28
2017-04-16T08:08:02.698Z,24
2017-04-16T08:09:10.812Z,28
2017-04-16T08:10:18.869Z,24
2017-04-16T08:11:26.961Z,24
2017-04-16T08:12:35.066Z,20
2017-04-16T08:13:43.157Z,24
2017-04-16T08:14:51.229Z,24
2017-04-16T08:15:59.329Z,24
2017-04-16T08:17:07.398Z,24
2017-04-16T08:18:15.468Z,24
2017-04-16T08:19:23.566Z,24
2017-04-16T08:20:31.670Z,28
2017-04-16T08:21:39.730Z,32
2017-04-16T08:22:47.839Z,28
2017-04-16T08:23:55.929Z,24
2017-04-16T08:25:04.011Z,28
2017-04-16T08:26:12.083Z,32
2017-04-16T08:27:20.185Z,32
2017-04-16T08:28:28.272Z,28
2017-04-16T08:29:36.317Z,28
2017-04-16T08:30:44.427Z,28
2017-04-16T08:31:52.367Z,32
2017-04-16T08:33:00.452Z,32
2017-04-16T08:34:08.540Z,28
2017-04-16T08:35:16.624Z,24
2017-04-16T08:36:24.710Z,24
2017-04-16T08:37:32.851Z,24
2017-04-16T08:38:40.892Z,28
2017-04-16T08:39:48.968Z,32
2017-04-16T08:40:57.056Z,32
2017-04-16T08:42:05.139Z,28
2017-04-16T08:43:13.230Z,32
2017-04-16T08:44:21.317Z,32
2017-04-16T08:45:29.402Z,28
2017-04-16T08:46:37.483Z,28
2017-04-16T08:47:45.578Z,28
2017-04-16T08:48:53.663Z,28
2017-04-16T08:50:01.753Z,24
2017-04-16T08:51:09.839Z,24
2017-04-16T08:52:17.922Z,24
2017-04-16T08:53:26.007Z,24
2017-04-16T08:54:34.089Z,24
2017-04-16T08:55:42.179Z,24
2017-04-16T08:56:50.264Z,20
2017-04-16T08:57:58.353Z,24
2017-04-16T08:59:06.436Z,24
2017-04-16T09:00:14.527Z,16
2017-04-16T09:01:22.603Z,20
2017-04-16T09:02:30.692Z,16
2017-04-16T09:03:38.778Z,16
2017-04-16T09:04:46.864Z,16
2017-04-16T09:05:54.950Z,12
2017-04-16T09:07:03.105Z,12
2017-04-16T09:08:11.121Z,12
2017-04-16T09:09:19.209Z,16
2017-04-16T09:10:27.290Z,16
2017-04-16T09:11:35.381Z,16
2017-04-16T09:12:43.464Z,12
2017-04-16T09:13:51.552Z,20
2017-04-16T09:14:59.649Z,20
2017-04-16T09:16:07.732Z,24
2017-04-16T09:17:15.814Z,20
2017-04-16T09:18:23.900Z,24
2017-04-16T09:19:31.988Z,24
2017-04-16T09:20:40.081Z,24
2017-04-16T09:21:48.160Z,24
2017-04-16T09:22:56.249Z,20
2017-04-16T09:24:04.338Z,16
2017-04-16T09:25:12.419Z,24
2017-04-16T09:26:20.505Z,20
2017-04-16T09:27:28.600Z,20
2017-04-16T09:28:36.690Z,20
2017-04-16T09:29:44.768Z,20
2017-04-16T09:30:52.858Z,24
2017-04-16T09:32:00.944Z,20
2017-04-16T09:33:09.029Z,16
2017-04-16T09:34:17.116Z,16
2017-04-16T09:35:25.203Z,20
2017-04-16T09:36:33.286Z,16
2017-04-16T09:37:41.371Z,24
2017-04-16T09:38:49.461Z,20
2017-04-16T09:39:57.544Z,24
2017-04-16T09:41:05.627Z,28
2017-04-16T09:42:13.716Z,28
2017-04-16T09:43:21.799Z,28
2017-04-16T09:44:29.885Z,28
2017-04-16T09:45:37.971Z,24
2017-04-16T09:46:46.057Z,24
2017-04-16T09:47:54.142Z,24
2017-04-16T09:49:02.225Z,20
2017-04-16T09:50:10.315Z,20
2017-04-16T09:51:18.403Z,20
2017-04-16T09:52:26.480Z,20
2017-04-16T09:53:34.566Z,20
2017-04-16T09:54:42.657Z,20
2017-04-16T09:55:50.741Z,20
2017-04-16T09:56:58.828Z,16
2017-04-16T09:58:06.913Z,20
2017-04-16T09:59:14.997Z,24
2017-04-16T10:00:23.080Z,20
2017-04-16T10:01:31.167Z,24
2017-04-16T10:02:39.263Z,28
2017-04-16T10:03:47.340Z,28
2017-04-16T10:04:55.424Z,32
2017-04-16T10:06:03.514Z,28
2017-04-16T10:07:11.595Z,24
2017-04-16T10:08:19.681Z,20
2017-04-16T10:09:27.764Z,24
2017-04-16T10:10:35.857Z,24
2017-04-16T10:11:43.937Z,20
2017-04-16T10:12:52.023Z,20
2017-04-16T10:14:00.114Z,20
2017-04-16T10:15:08.202Z,16
2017-04-16T10:16:16.279Z,20
2017-04-16T10:17:24.363Z,16
2017-04-16T10:18:32.453Z,16
2017-04-16T10:19:40.536Z,12
2017-04-16T10:20:48.623Z,16
2017-04-16T10:21:56.711Z,20
2017-04-16T10:23:04.796Z,24
2017-04-16T10:24:12.878Z,24
2017-04-16T10:25:20.979Z,24
2017-04-16T10:26:29.059Z,24
2017-04-16T10:27:37.139Z,28
2017-04-16T10:28:45.225Z,24
2017-04-16T10:29:53.318Z,28
2017-04-16T10:31:01.402Z,28
2017-04-16T10:32:09.489Z,28
2017-04-16T10:33:17.574Z,24
2017-04-16T10:34:25.665Z,20
2017-04-16T10:35:33.751Z,20
2017-04-16T10:36:42.131Z,20
2017-04-16T10:37:49.929Z,28
2017-04-16T10:38:58.014Z,32
2017-04-16T10:40:06.098Z,36
2017-04-16T10:41:14.198Z,40
2017-04-16T10:42:22.278Z,40
2017-04-16T10:43:30.365Z,36
2017-04-16T10:44:38.447Z,40
2017-04-16T10:45:46.536Z,40
2017-04-16T10:46:54.625Z,40
2017-04-16T10:48:02.705Z,40
2017-04-16T10:49:11.113Z,36
2017-04-16T10:50:18.880Z,36
2017-04-16T10:51:26.965Z,36
2017-04-16T10:52:35.055Z,36
2017-04-16T10:53:43.143Z,36
2017-04-16T10:54:51.229Z,36
2017-04-16T10:55:59.314Z,32
2017-04-16T10:57:07.400Z,36
2017-04-16T10:58:15.484Z,36
2017-04-16T10:59:23.568Z,36
2017-04-16T11:00:31.649Z,36
2017-04-16T11:01:39.746Z,36
2017-04-16T11:02:47.826Z,36
2017-04-16T11:03:55.912Z,36
2017-04-16T11:05:04.002Z,32
2017-04-16T11:06:12.097Z,32
2017-04-16T11:07:20.176Z,36
2017-04-16T11:08:28.258Z,36
2017-04-16T11:09:36.349Z,36
2017-04-16T11:10:44.438Z,40
2017-04-16T11:11:52.519Z,44
2017-04-16T11:13:00.609Z,40
2017-04-16T11:14:08.703Z,40
2017-04-16T11:15:16.784Z,40
2017-04-16T11:16:24.869Z,40
2017-04-16T11:17:32.957Z,36
2017-04-16T11:18:41.051Z,36
2017-04-16T11:19:49.138Z,36
2017-04-16T11:20:57.231Z,32
2017-04-16T11:22:05.317Z,28
2017-04-16T11:23:13.405Z,24
2017-04-16T11:24:21.484Z,24
2017-04-16T11:25:29.576Z,20
2017-04-16T11:26:37.655Z,20
2017-04-16T11:27:45.741Z,24
2017-04-16T11:28:53.842Z,28
2017-04-16T11:30:01.926Z,28
2017-04-16T11:31:10.011Z,28
2017-04-16T11:32:18.092Z,28
2017-04-16T11:33:26.181Z,24
2017-04-16T11:34:34.268Z,24
2017-04-16T11:35:42.416Z,24
2017-04-16T11:36:50.439Z,24
2017-04-16T11:37:58.526Z,24
2017-04-16T11:39:06.609Z,28
2017-04-16T11:40:14.696Z,32
2017-04-16T11:41:22.787Z,32
2017-04-16T11:42:30.875Z,32
2017-04-16T11:43:38.966Z,36
2017-04-16T11:44:47.047Z,32
2017-04-16T11:45:55.147Z,32
2017-04-16T11:47:03.215Z,36
2017-04-16T11:48:11.317Z,32
2017-04-16T11:49:19.394Z,32
2017-04-16T11:50:27.480Z,28
2017-04-16T11:51:35.568Z,28
2017-04-16T11:52:43.719Z,28
2017-04-16T11:53:51.744Z,28
2017-04-16T11:54:59.827Z,36
2017-04-16T11:56:07.919Z,40
2017-04-16T11:57:16.001Z,48
2017-04-16T11:58:24.087Z,48
2017-04-16T11:59:32.182Z,48
2017-04-16T12:00:40.267Z,52
2017-04-16T12:01:48.353Z,52
2017-04-16T12:02:56.436Z,52
2017-04-16T12:04:04.526Z,52
2017-04-16T12:05:12.630Z,48
2017-04-16T12:06:20.697Z,48
2017-04-16T12:07:28.781Z,48
2017-04-16T12:08:36.870Z,48
2017-04-16T12:09:44.955Z,48
2017-04-16T12:10:53.040Z,48
2017-04-16T12:12:01.131Z,48
2017-04-16T12:13:09.220Z,48
2017-04-16T12:14:17.307Z,48
2017-04-16T12:15:25.391Z,44
2017-04-16T12:16:33.478Z,44
2017-04-16T12:17:41.568Z,44
2017-04-16T12:18:49.649Z,40
2017-04-16T12:19:57.738Z,32
2017-04-16T12:21:05.826Z,32
2017-04-16T12:22:13.917Z,32
2017-04-16T12:23:22.000Z,32
2017-04-16T12:24:30.086Z,32
2017-04-16T12:25:38.171Z,28
2017-04-16T12:26:46.260Z,32
2017-04-16T12:27:54.349Z,32
2017-04-16T12:29:02.435Z,32
2017-04-16T12:30:10.520Z,32
2017-04-16T12:31:18.601Z,32
2017-04-16T12:32:26.694Z,28
2017-04-16T12:33:34.781Z,32
2017-04-16T12:34:42.861Z,28
2017-04-16T12:35:50.953Z,28
2017-04-16T12:36:59.040Z,28
2017-04-16T12:38:07.123Z,28
2017-04-16T12:39:15.208Z,28
2017-04-16T12:40:23.304Z,28
2017-04-16T12:41:31.385Z,28
2017-04-16T12:42:39.469Z,32
2017-04-16T12:43:47.557Z,32
2017-04-16T12:44:55.645Z,32
2017-04-16T12:46:03.730Z,32
2017-04-16T12:47:11.818Z,36
2017-04-16T12:48:19.906Z,32
2017-04-16T12:49:27.988Z,32
2017-04-16T12:50:36.094Z,32
2017-04-16T12:51:44.162Z,32
2017-04-16T12:52:52.328Z,36
2017-04-16T12:54:00.334Z,32
2017-04-16T12:55:08.426Z,36
2017-04-16T12:56:16.507Z,36
2017-04-16T12:57:24.597Z,36
2017-04-16T12:58:32.682Z,36
2017-04-16T12:59:40.774Z,36
2017-04-16T13:00:48.866Z,32
2017-04-16T13:01:56.948Z,36
2017-04-16T13:03:05.037Z,36
2017-04-16T13:04:13.125Z,36
2017-04-16T13:05:21.210Z,36
2017-04-16T13:06:29.294Z,36
2017-04-16T13:07:37.384Z,36
2017-04-16T13:08:45.470Z,40
2017-04-16T13:09:53.558Z,36
2017-04-16T13:11:01.646Z,40
2017-04-16T13:12:09.750Z,40
2017-04-16T13:13:17.813Z,40
2017-04-16T13:14:25.907Z,40
2017-04-16T13:15:33.991Z,40
2017-04-16T13:16:42.078Z,40
2017-04-16T13:17:50.185Z,40
2017-04-16T13:18:58.250Z,36
2017-04-16T13:20:06.335Z,36
2017-04-16T13:21:14.423Z,36
2017-04-16T13:22:22.507Z,36
2017-04-16T13:23:30.597Z,36
2017-04-16T13:24:38.686Z,36
2017-04-16T13:25:46.767Z,36
2017-04-16T13:26:54.859Z,36
2017-04-16T13:28:02.947Z,36
2017-04-16T13:29:11.031Z,32
2017-04-16T13:30:19.114Z,36
2017-04-16T13:31:27.203Z,32
2017-04-16T13:32:35.292Z,32
2017-04-16T13:33:43.396Z,36
2017-04-16T13:34:51.465Z,36
2017-04-16T13:35:59.550Z,36
2017-04-16T13:37:08.172Z,40
2017-04-16T13:38:15.726Z,36
2017-04-16T13:39:23.811Z,36
2017-04-16T13:40:31.901Z,36
2017-04-16T13:41:39.986Z,36
2017-04-16T13:42:48.076Z,36
2017-04-16T13:43:56.166Z,36
2017-04-16T13:45:04.258Z,40
2017-04-16T13:46:12.347Z,40
2017-04-16T13:47:20.434Z,36
2017-04-16T13:48:28.521Z,36
2017-04-16T13:49:36.605Z,32
2017-04-16T13:50:44.695Z,36
2017-04-16T13:51:52.780Z,32
2017-04-16T13:53:00.863Z,32
2017-04-16T13:54:08.951Z,28
2017-04-16T13:55:17.041Z,24
2017-04-16T13:56:25.128Z,24
2017-04-16T13:57:33.211Z,20
2017-04-16T13:58:41.304Z,20
2017-04-16T13:59:49.390Z,24
2017-04-16T14:00:57.473Z,24
2017-04-16T14:02:05.565Z,28
2017-04-16T14:03:13.653Z,28
2017-04-16T14:04:21.816Z,32
2017-04-16T14:05:29.823Z,28
2017-04-16T14:06:37.920Z,32
2017-04-16T14:07:46.003Z,32
2017-04-16T14:08:54.102Z,28
2017-04-16T14:10:02.186Z,28
2017-04-16T14:11:10.276Z,28
2017-04-16T14:12:18.363Z,28
2017-04-16T14:13:26.447Z,24
2017-04-16T14:14:34.537Z,24
2017-04-16T14:15:42.627Z,24
2017-04-16T14:16:50.709Z,24
2017-04-16T14:17:58.978Z,20
2017-04-16T14:19:06.914Z,20
2017-04-16T14:20:15.166Z,24
2017-04-16T14:21:23.090Z,24
2017-04-16T14:22:31.148Z,20
2017-04-16T14:23:39.717Z,24
2017-04-16T14:24:47.341Z,24
2017-04-16T14:25:55.413Z,20
2017-04-16T14:27:03.501Z,16
2017-04-16T14:28:11.585Z,16
2017-04-16T14:29:19.681Z,8
2017-04-16T14:30:27.766Z,8
2017-04-16T14:31:36.233Z,8
2017-04-16T14:32:43.936Z,8
2017-04-16T14:33:52.615Z,12
2017-04-16T14:35:00.109Z,8
2017-04-16T14:36:08.189Z,12
2017-04-16T14:37:16.278Z,16
2017-04-16T14:38:24.370Z,20
2017-04-16T14:39:32.453Z,24
2017-04-16T14:40:40.543Z,24
2017-04-16T14:41:48.630Z,24
2017-04-16T14:42:56.718Z,24
2017-04-16T14:44:04.807Z,28
2017-04-16T14:45:13.502Z,28
2017-04-16T14:46:20.979Z,28
2017-04-16T14:47:29.064Z,28
2017-04-16T14:48:37.157Z,28
2017-04-16T14:49:45.250Z,28
2017-04-16T14:50:53.337Z,28
2017-04-16T14:52:01.418Z,32
2017-04-16T14:53:09.505Z,28
2017-04-16T14:54:17.600Z,28
2017-04-16T14:55:25.683Z,28
2017-04-16T14:56:33.766Z,28
2017-04-16T14:57:41.862Z,28
2017-04-16T14:58:49.949Z,28
2017-04-16T14:59:58.033Z,28
2017-04-16T15:01:06.121Z,24
2017-04-16T15:02:14.209Z,24
2017-04-16T15:03:22.292Z,24
2017-04-16T15:04:30.383Z,28
2017-04-16T15:05:38.470Z,24
2017-04-16T15:06:46.557Z,24
2017-04-16T15:07:54.642Z,20
2017-04-16T15:09:02.728Z,20
2017-04-16T15:10:10.816Z,24
2017-04-16T15:11:18.908Z,20
2017-04-16T15:12:26.991Z,20
2017-04-16T15:13:35.082Z,20
2017-04-16T15:14:43.167Z,24
2017-04-16T15:15:51.252Z,20
2017-04-16T15:16:59.345Z,28
2017-04-16T15:18:07.432Z,24
2017-04-16T15:19:15.516Z,28
2017-04-16T15:20:23.600Z,24
2017-04-16T15:21:31.687Z,28
2017-04-16T15:22:39.783Z,24
2017-04-16T15:23:47.861Z,24
2017-04-16T15:24:55.950Z,20
2017-04-16T15:26:04.039Z,20
2017-04-16T15:27:12.124Z,20
2017-04-16T15:28:20.209Z,20
2017-04-16T15:29:28.303Z,20
2017-04-16T15:30:36.390Z,16
2017-04-16T15:31:44.471Z,16
2017-04-16T15:32:52.564Z,16
2017-04-16T15:34:00.655Z,16
2017-04-16T15:35:08.751Z,20
2017-04-16T15:36:16.826Z,16
2017-04-16T15:37:24.916Z,16
2017-04-16T15:38:33.001Z,16
2017-04-16T15:39:41.087Z,16
2017-04-16T15:40:49.177Z,16
2017-04-16T15:41:57.263Z,20
2017-04-16T15:43:05.352Z,24
2017-04-16T15:44:13.432Z,20
2017-04-16T15:45:21.521Z,16
2017-04-16T15:46:29.654Z,16
2017-04-16T15:47:37.697Z,16
2017-04-16T15:48:45.790Z,12
2017-04-16T15:49:53.876Z,8
2017-04-16T15:51:01.958Z,12
2017-04-16T15:52:10.044Z,20
2017-04-16T15:53:18.135Z,20
2017-04-16T15:54:26.221Z,24
2017-04-16T15:55:34.302Z,24
2017-04-16T15:56:42.394Z,20
2017-04-16T15:57:50.485Z,20
2017-04-16T15:58:58.574Z,20
2017-04-16T16:00:06.654Z,20
2017-04-16T16:01:14.740Z,20
2017-04-16T16:02:22.827Z,20
2017-04-16T16:03:30.910Z,20
2017-04-16T16:04:39.001Z,20
2017-04-16T16:05:47.084Z,20
2017-04-16T16:06:55.168Z,16
2017-04-16T16:08:03.259Z,16
2017-04-16T16:09:11.345Z,16
2017-04-16T16:10:19.435Z,16
2017-04-16T16:11:27.515Z,20
2017-04-16T16:12:35.609Z,16
2017-04-16T16:13:43.693Z,16
2017-04-16T16:14:51.777Z,16
2017-04-16T16:15:59.864Z,16
2017-04-16T16:17:07.956Z,12
2017-04-16T16:18:16.043Z,12
2017-04-16T16:19:24.129Z,12
2017-04-16T16:20:32.219Z,12
2017-04-16T16:21:40.304Z,12
2017-04-16T16:22:48.392Z,12
2017-04-16T16:23:56.477Z,16
2017-04-16T16:25:04.568Z,16
2017-04-16T16:26:12.646Z,16